Aviation Digital Data Service (ADDS)

Output produced by METARs form (0818 UTC 25 April 2014)
found at http://www.aviationweather.gov/adds/metars/
 
KDOV 250758Z AUTO 06002KT 10SM CLR 06/04 A2999 RMK AO2 SLP159 T00620042
TAF KDOV 2508/2614 VRB06KT 9999 FEW150 QNH2997INS 
     BECMG 2515/2516 14010G15KT 9999 SCT090 QNH2970INS 
     BECMG 2523/2524 14012G18KT 8000 -SHRA BKN036 OVC060 610909 QNH2968INS 
     BECMG 2602/2603 14012G18KT 8000 -SHRA OVC004 WS020/18047KT 610909 QNH2968INS 
     BECMG 2609/2610 30015G25KT 9999 NSW SCT003 QNH2989INS TX16/2520Z TN06/2508Z